Time;durP1;ratioP1;P1;durP2;ratioP2;P2;SDS_P1;SDS_P2;PMS_P1;PMS_P2;Temp;Humidity;BMP_temperature;BMP_pressure;BME280_temperature;BME280_humidity;BME280_pressure;Samples;Min_cycle;Max_cycle;Signal;HPM_P1;HPM_P2
2023/01/05 00:00:20;;;;;;;;;;;;;;;;;;1023416;29;19910;-78
2023/01/05 00:00:50;;;;;;;;;;;;;;;;;;1023658;29;19926;-77
2023/01/05 00:01:21;;;;;;;;;;;;;;;;;;1025319;28;20017;-79
2023/01/05 00:01:52;;;;;;;;;;;;;;;;;;1029368;28;19965;-77
2023/01/05 00:02:23;;;;;;;;;;;;;;;;;;1023643;29;19980;-78
2023/01/05 00:02:54;;;;;;;;;;;;;;;;;;1026408;28;19914;-77
2023/01/05 00:03:25;;;;;;;;;;;;;;;;;;1023329;29;19917;-78
2023/01/05 00:03:56;;;;;;;;;;;;;;;;;;1023407;29;20013;-79
2023/01/05 00:04:27;;;;;;;;;;;;;;;;;;1023527;29;19915;-78
2023/01/05 00:04:57;;;;;;;;;;;;;;;;;;1026490;28;19914;-79
2023/01/05 00:05:28;;;;;;;;;;;;;;;;;;1027988;28;20413;-78
2023/01/05 00:05:59;;;;;;;;;;;;;;;;;;1027881;28;19914;-79
2023/01/05 00:06:30;;;;;;;;;;;;;;;;;;1027608;28;20587;-78
2023/01/05 00:07:01;;;;;;;;;;;;;;;;;;1027755;28;20491;-79
2023/01/05 00:07:32;;;;;;;;;;;;;;;;;;1027884;28;20656;-78
2023/01/05 00:08:03;;;;;;;;;;;;;;;;;;1023290;29;19914;-78
2023/01/05 00:08:34;;;;;;;;;;;;;;;;;;1023675;29;19950;-78
2023/01/05 00:09:04;;;;;;;;;;;;;;;;;;1023408;29;19914;-78
2023/01/05 00:09:37;;;;;;;;;;;;;;;;;;1023644;28;19914;-78
2023/01/05 00:22:29;;;;;;;;;;;;;;;;;;1027380;28;19965;-79
2023/01/05 00:22:35;;;;;;;;;;;;;;;;;;1028081;28;20384;-78
2023/01/05 00:23:06;;;;;;;;;;;;;;;;;;1023408;28;19917;-79
2023/01/05 00:23:37;;;;;;;;;;;;;;;;;;1024596;28;19922;-78
2023/01/05 00:24:08;;;;;;;;;;;;;;;;;;1019608;29;19941;-79
2023/01/05 00:24:39;;;;;;;;;;;;;;;;;;1019545;29;20342;-78
2023/01/05 00:25:10;;;;;;;;;;;;;;;;;;1020842;29;19911;-78
2023/01/05 00:25:41;;;;;;;;;;;;;;;;;;1024120;28;19938;-79
2023/01/05 00:26:12;;;;;;;;;;;;;;;;;;1027565;28;20425;-79
2023/01/05 00:26:43;;;;;;;;;;;;;;;;;;1023580;29;19910;-78
2023/01/05 00:27:14;;;;;;;;;;;;;;;;;;1023366;29;19907;-79
2023/01/05 00:27:45;;;;;;;;;;;;;;;;;;1023556;29;19952;-78
2023/01/05 00:28:16;;;;;;;;;;;;;;;;;;1023600;28;20045;-79
2023/01/05 00:28:46;;;;;;;;;;;;;;;;;;1027646;28;19910;-78
2023/01/05 00:29:17;;;;;;;;;;;;;;;;;;1023301;29;20454;-79
2023/01/05 00:29:48;;;;;;;;;;;;;;;;;;1023523;29;19941;-79
2023/01/05 00:30:19;;;;;;;;;;;;;;;;;;1023301;28;19907;-79
2023/01/05 00:30:50;;;;;;;;;;;;;;;;;;1023908;28;20530;-79
2023/01/05 00:31:21;;;;;;;;;;;;;;;;;;1027652;28;20464;-79
2023/01/05 00:31:52;;;;;;;;;;;;;;;;;;1022691;29;19917;-79
2023/01/05 00:32:25;;;;;;;;;;;;;;;;;;1023606;29;20570;-78
2023/01/05 00:32:56;;;;;;;;;;;;;;;;;;1023129;29;19910;-79
2023/01/05 00:33:27;;;;;;;;;;;;;;;;;;1019480;29;19949;-78
2023/01/05 00:33:58;;;;;;;;;;;;;;;;;;1023055;29;19936;-79
2023/01/05 00:34:29;;;;;;;;;;;;;;;;;;1023608;29;19911;-78
2023/01/05 00:34:59;;;;;;;;;;;;;;;;;;1023299;29;19907;-78
2023/01/05 00:35:30;;;;;;;;;;;;;;;;;;1019801;29;19919;-79
2023/01/05 00:36:01;;;;;;;;;;;;;;;;;;1019584;29;19954;-78
2023/01/05 00:36:32;;;;;;;;;;;;;;;;;;1019444;29;19994;-78
2023/01/05 00:37:03;;;;;;;;;;;;;;;;;;1015602;29;19916;-78
2023/01/05 00:37:34;;;;;;;;;;;;;;;;;;1015785;29;19947;-78
2023/01/05 00:38:05;;;;;;;;;;;;;;;;;;1019431;29;19910;-79
2023/01/05 00:38:36;;;;;;;;;;;;;;;;;;1019793;29;20426;-78
2023/01/05 00:39:06;;;;;;;;;;;;;;;;;;1023502;28;19910;-79
2023/01/05 00:39:37;;;;;;;;;;;;;;;;;;1027760;28;20242;-78
2023/01/05 00:40:08;;;;;;;;;;;;;;;;;;1023034;29;19934;-78
2023/01/05 00:40:39;;;;;;;;;;;;;;;;;;1023640;29;19914;-78
2023/01/05 00:41:10;;;;;;;;;;;;;;;;;;1019249;29;19953;-78
2023/01/05 00:41:41;;;;;;;;;;;;;;;;;;1020023;29;19918;-78
2023/01/05 00:42:12;;;;;;;;;;;;;;;;;;1023488;29;20025;-78
2023/01/05 00:42:43;;;;;;;;;;;;;;;;;;1023273;29;19965;-78
2023/01/05 00:43:13;;;;;;;;;;;;;;;;;;1023199;29;20278;-78
2023/01/05 00:43:44;;;;;;;;;;;;;;;;;;1019455;29;19918;-79
2023/01/05 00:44:15;;;;;;;;;;;;;;;;;;1019242;29;19922;-78
2023/01/05 00:44:46;;;;;;;;;;;;;;;;;;1019870;29;19915;-78
2023/01/05 00:45:17;;;;;;;;;;;;;;;;;;1023549;28;20021;-77
2023/01/05 00:45:48;;;;;;;;;;;;;;;;;;1027333;28;19937;-78
2023/01/05 00:46:19;;;;;;;;;;;;;;;;;;1027702;28;19911;-78
2023/01/05 00:46:50;;;;;;;;;;;;;;;;;;1027829;28;20000;-78
2023/01/05 00:47:21;;;;;;;;;;;;;;;;;;1027714;28;19914;-78
2023/01/05 00:47:53;;;;;;;;;;;;;;;;;;1027302;28;20397;-79
2023/01/05 00:48:24;;;;;;;;;;;;;;;;;;1023249;29;19914;-77
2023/01/05 00:48:55;;;;;;;;;;;;;;;;;;1019322;29;19970;-78
2023/01/05 00:49:26;;;;;;;;;;;;;;;;;;1019327;29;19921;-78
2023/01/05 00:49:57;;;;;;;;;;;;;;;;;;1019475;29;19918;-78
2023/01/05 00:50:28;;;;;;;;;;;;;;;;;;1023370;29;20005;-77
2023/01/05 00:50:59;;;;;;;;;;;;;;;;;;1023221;28;19910;-78
2023/01/05 00:51:29;;;;;;;;;;;;;;;;;;1023467;29;19970;-78
2023/01/05 00:52:00;;;;;;;;;;;;;;;;;;1023460;28;20506;-78
2023/01/05 00:52:31;;;;;;;;;;;;;;;;;;1023418;29;20017;-78
2023/01/05 00:53:02;;;;;;;;;;;;;;;;;;1023197;29;20275;-79
2023/01/05 00:53:33;;;;;;;;;;;;;;;;;;1019487;29;19921;-79
2023/01/05 00:54:04;;;;;;;;;;;;;;;;;;1019429;29;20689;-78
2023/01/05 00:54:35;;;;;;;;;;;;;;;;;;1021186;29;19918;-79
2023/01/05 00:55:06;;;;;;;;;;;;;;;;;;1023554;28;20026;-78
2023/01/05 00:55:36;;;;;;;;;;;;;;;;;;1027310;28;19949;-78
2023/01/05 00:56:07;;;;;;;;;;;;;;;;;;1026904;28;19981;-78
2023/01/05 00:56:38;;;;;;;;;;;;;;;;;;1027559;28;19910;-78
2023/01/05 00:57:09;;;;;;;;;;;;;;;;;;1027248;28;20001;-79
2023/01/05 00:57:40;;;;;;;;;;;;;;;;;;1023394;29;19911;-76
2023/01/05 00:58:11;;;;;;;;;;;;;;;;;;1023139;29;19922;-79
2023/01/05 00:58:42;;;;;;;;;;;;;;;;;;1023494;29;20008;-78
2023/01/05 00:59:12;;;;;;;;;;;;;;;;;;1023416;28;19922;-79
2023/01/05 00:59:43;;;;;;;;;;;;;;;;;;1023323;29;19981;-78
2023/01/05 01:00:14;;;;;;;;;;;;;;;;;;1023064;29;19914;-78
2023/01/05 01:00:45;;;;;;;;;;;;;;;;;;1023497;29;19914;-78
2023/01/05 01:01:16;;;;;;;;;;;;;;;;;;1023364;28;19973;-78
2023/01/05 01:01:47;;;;;;;;;;;;;;;;;;1027642;28;20422;-77
2023/01/05 01:02:18;;;;;;;;;;;;;;;;;;1027653;28;19914;-78
2023/01/05 01:02:48;;;;;;;;;;;;;;;;;;1023407;29;20362;-79
2023/01/05 01:03:19;;;;;;;;;;;;;;;;;;1023326;29;20001;-78
2023/01/05 01:03:50;;;;;;;;;;;;;;;;;;1023221;29;20774;-79
2023/01/05 01:04:21;;;;;;;;;;;;;;;;;;1023311;29;20382;-78
2023/01/05 01:04:52;;;;;;;;;;;;;;;;;;1025861;28;20393;-79
2023/01/05 01:05:23;;;;;;;;;;;;;;;;;;1027557;28;19918;-78
2023/01/05 01:05:54;;;;;;;;;;;;;;;;;;1023226;29;19989;-78
2023/01/05 01:06:25;;;;;;;;;;;;;;;;;;1023816;28;20001;-78
2023/01/05 01:06:56;;;;;;;;;;;;;;;;;;1019263;29;20515;-78
2023/01/05 01:07:26;;;;;;;;;;;;;;;;;;1019665;29;19938;-78
2023/01/05 01:07:57;;;;;;;;;;;;;;;;;;1019386;29;20352;-79
2023/01/05 01:08:28;;;;;;;;;;;;;;;;;;1019805;29;19919;-79
2023/01/05 01:08:59;;;;;;;;;;;;;;;;;;1023273;29;19994;-78
2023/01/05 01:09:30;;;;;;;;;;;;;;;;;;1023436;29;20393;-78
2023/01/05 01:10:01;;;;;;;;;;;;;;;;;;1023496;28;19921;-79
2023/01/05 01:10:32;;;;;;;;;;;;;;;;;;1027652;28;19917;-78
2023/01/05 01:11:03;;;;;;;;;;;;;;;;;;1023243;29;19924;-79
2023/01/05 01:11:34;;;;;;;;;;;;;;;;;;1019375;29;19943;-79
2023/01/05 01:12:05;;;;;;;;;;;;;;;;;;1019528;29;19915;-78
2023/01/05 01:12:35;;;;;;;;;;;;;;;;;;1023592;28;19914;-79
2023/01/05 01:13:06;;;;;;;;;;;;;;;;;;1025859;28;19986;-79
2023/01/05 01:13:37;;;;;;;;;;;;;;;;;;1023373;29;19962;-79
2023/01/05 01:14:08;;;;;;;;;;;;;;;;;;1023382;29;19938;-78
2023/01/05 01:14:39;;;;;;;;;;;;;;;;;;1023447;29;19914;-79
2023/01/05 01:15:10;;;;;;;;;;;;;;;;;;1023279;28;19910;-79
2023/01/05 01:15:41;;;;;;;;;;;;;;;;;;1027357;28;19915;-79
2023/01/05 01:16:12;;;;;;;;;;;;;;;;;;1023264;29;19915;-79
2023/01/05 01:16:43;;;;;;;;;;;;;;;;;;1023279;29;19944;-79
2023/01/05 01:17:13;;;;;;;;;;;;;;;;;;1020771;29;20678;-78
2023/01/05 01:17:45;;;;;;;;;;;;;;;;;;1019398;29;19915;-79
2023/01/05 01:18:16;;;;;;;;;;;;;;;;;;1021091;28;19911;-79
2023/01/05 01:18:47;;;;;;;;;;;;;;;;;;1027029;28;19917;-78
2023/01/05 01:19:17;;;;;;;;;;;;;;;;;;1023239;29;19914;-78
2023/01/05 01:19:48;;;;;;;;;;;;;;;;;;1023276;29;20005;-79
2023/01/05 01:20:19;;;;;;;;;;;;;;;;;;1023220;29;19920;-79
2023/01/05 01:20:50;;;;;;;;;;;;;;;;;;1019359;29;19933;-79
2023/01/05 01:21:21;;;;;;;;;;;;;;;;;;1019378;29;19915;-79
2023/01/05 01:21:52;;;;;;;;;;;;;;;;;;1021675;29;19914;-78
2023/01/05 01:22:23;;;;;;;;;;;;;;;;;;1023564;28;20013;-79
2023/01/05 01:22:55;;;;;;;;;;;;;;;;;;1026991;28;20362;-80
2023/01/05 01:23:26;;;;;;;;;;;;;;;;;;1022566;29;19915;-79
2023/01/05 01:23:57;;;;;;;;;;;;;;;;;;1023181;29;19911;-79
2023/01/05 01:24:28;;;;;;;;;;;;;;;;;;1023350;29;19914;-78
2023/01/05 01:25:00;;;;;;;;;;;;;;;;;;1023367;28;20406;-79
2023/01/05 01:25:30;;;;;;;;;;;;;;;;;;1027482;28;20021;-80
2023/01/05 01:26:01;;;;;;;;;;;;;;;;;;1023440;29;19914;-79
2023/01/05 01:26:32;;;;;;;;;;;;;;;;;;1023413;29;19918;-78
2023/01/05 01:27:03;;;;;;;;;;;;;;;;;;1026213;28;20012;-79
2023/01/05 01:27:37;;;;;;;;;;;;;;;;;;1021555;29;19994;-79
2023/01/05 01:28:08;;;;;;;;;;;;;;;;;;1015261;29;20022;-79
2023/01/05 01:28:38;;;;;;;;;;;;;;;;;;1017698;29;19920;-79
2023/01/05 01:29:09;;;;;;;;;;;;;;;;;;1023328;28;20005;-80
2023/01/05 01:29:40;;;;;;;;;;;;;;;;;;1025173;28;19977;-79
2023/01/05 01:30:11;;;;;;;;;;;;;;;;;;1020144;29;20503;-79
2023/01/05 01:30:42;;;;;;;;;;;;;;;;;;1023345;29;20543;-79
2023/01/05 01:31:13;;;;;;;;;;;;;;;;;;1022919;29;19914;-79
2023/01/05 01:31:44;;;;;;;;;;;;;;;;;;1023458;28;19911;-79
2023/01/05 01:32:15;;;;;;;;;;;;;;;;;;1022627;29;20374;-79
2023/01/05 01:32:45;;;;;;;;;;;;;;;;;;1023130;29;19918;-79
2023/01/05 01:33:16;;;;;;;;;;;;;;;;;;1019529;29;19971;-79
2023/01/05 01:33:47;;;;;;;;;;;;;;;;;;1019611;29;19915;-79
2023/01/05 01:34:18;;;;;;;;;;;;;;;;;;1020202;29;19981;-79
2023/01/05 01:34:49;;;;;;;;;;;;;;;;;;1019284;29;19954;-79
2023/01/05 01:35:20;;;;;;;;;;;;;;;;;;1019379;29;19911;-78
2023/01/05 01:35:51;;;;;;;;;;;;;;;;;;1019406;29;19926;-80
2023/01/05 01:36:22;;;;;;;;;;;;;;;;;;1023452;29;20511;-80
2023/01/05 01:36:53;;;;;;;;;;;;;;;;;;1019356;29;19922;-78
2023/01/05 01:37:24;;;;;;;;;;;;;;;;;;1019679;29;19911;-79
2023/01/05 01:37:54;;;;;;;;;;;;;;;;;;1023165;29;20009;-79
2023/01/05 01:38:25;;;;;;;;;;;;;;;;;;1023474;28;20095;-79
2023/01/05 01:38:56;;;;;;;;;;;;;;;;;;1023055;29;19914;-80
2023/01/05 01:39:27;;;;;;;;;;;;;;;;;;1023020;29;19962;-80
2023/01/05 01:39:58;;;;;;;;;;;;;;;;;;1022880;29;19966;-78
2023/01/05 01:40:29;;;;;;;;;;;;;;;;;;1019548;29;19982;-79
2023/01/05 01:41:00;;;;;;;;;;;;;;;;;;1022925;29;19985;-79
2023/01/05 01:41:30;;;;;;;;;;;;;;;;;;1022797;29;19914;-79
2023/01/05 01:42:01;;;;;;;;;;;;;;;;;;1019488;29;20596;-78
2023/01/05 01:42:32;;;;;;;;;;;;;;;;;;1023195;29;19954;-79
2023/01/05 01:43:03;;;;;;;;;;;;;;;;;;1023330;28;19919;-79
2023/01/05 01:43:34;;;;;;;;;;;;;;;;;;1027471;28;19914;-78
2023/01/05 01:44:05;;;;;;;;;;;;;;;;;;1023113;29;19997;-77
2023/01/05 01:44:36;;;;;;;;;;;;;;;;;;1023321;29;19910;-79
2023/01/05 01:45:06;;;;;;;;;;;;;;;;;;1023167;29;19917;-79
2023/01/05 01:45:37;;;;;;;;;;;;;;;;;;1019524;29;19997;-79
2023/01/05 01:46:08;;;;;;;;;;;;;;;;;;1023201;29;19910;-80
2023/01/05 01:46:39;;;;;;;;;;;;;;;;;;1019232;29;19934;-79
2023/01/05 01:47:10;;;;;;;;;;;;;;;;;;1019180;29;19913;-78
2023/01/05 01:47:41;;;;;;;;;;;;;;;;;;1020497;29;19915;-77
2023/01/05 01:48:12;;;;;;;;;;;;;;;;;;1019107;29;20005;-79
2023/01/05 01:48:43;;;;;;;;;;;;;;;;;;1019548;29;19911;-79
2023/01/05 01:49:14;;;;;;;;;;;;;;;;;;1019474;29;19913;-79
2023/01/05 01:49:45;;;;;;;;;;;;;;;;;;1019383;29;20677;-79
2023/01/05 01:50:15;;;;;;;;;;;;;;;;;;1019242;29;19918;-79
2023/01/05 01:50:46;;;;;;;;;;;;;;;;;;1019468;29;20371;-79
2023/01/05 01:51:17;;;;;;;;;;;;;;;;;;1021662;29;19915;-78
2023/01/05 01:51:48;;;;;;;;;;;;;;;;;;1023303;29;19911;-79
2023/01/05 01:52:19;;;;;;;;;;;;;;;;;;1023295;29;19911;-78
2023/01/05 01:52:50;;;;;;;;;;;;;;;;;;1024607;28;19917;-79
2023/01/05 01:53:21;;;;;;;;;;;;;;;;;;1023338;29;19914;-78
2023/01/05 01:53:51;;;;;;;;;;;;;;;;;;1023207;29;19911;-79
2023/01/05 01:54:22;;;;;;;;;;;;;;;;;;1023083;28;20575;-78
2023/01/05 01:54:53;;;;;;;;;;;;;;;;;;1023360;28;19942;-79
2023/01/05 01:55:24;;;;;;;;;;;;;;;;;;1023517;29;20264;-78
2023/01/05 01:55:55;;;;;;;;;;;;;;;;;;1022963;29;19915;-79
2023/01/05 01:56:26;;;;;;;;;;;;;;;;;;1023244;29;20332;-79
2023/01/05 01:56:57;;;;;;;;;;;;;;;;;;1019213;29;19907;-78
2023/01/05 01:57:27;;;;;;;;;;;;;;;;;;1019672;29;20592;-79
2023/01/05 01:57:58;;;;;;;;;;;;;;;;;;1023122;29;19910;-79
2023/01/05 01:58:29;;;;;;;;;;;;;;;;;;1019340;29;19962;-78
2023/01/05 01:59:00;;;;;;;;;;;;;;;;;;1019265;29;20716;-79
2023/01/05 01:59:31;;;;;;;;;;;;;;;;;;1019030;29;19981;-80
2023/01/05 02:00:02;;;;;;;;;;;;;;;;;;1019183;29;20358;-80
2023/01/05 02:00:33;;;;;;;;;;;;;;;;;;1019450;29;20001;-79
2023/01/05 02:01:04;;;;;;;;;;;;;;;;;;1019375;29;19946;-78
2023/01/05 02:01:34;;;;;;;;;;;;;;;;;;1023343;28;19915;-79
2023/01/05 02:02:05;;;;;;;;;;;;;;;;;;1027090;28;20401;-79
2023/01/05 02:02:36;;;;;;;;;;;;;;;;;;1027077;28;19917;-80
2023/01/05 02:03:07;;;;;;;;;;;;;;;;;;1027120;28;20692;-79
2023/01/05 02:03:38;;;;;;;;;;;;;;;;;;1026987;28;19916;-78
2023/01/05 02:04:09;;;;;;;;;;;;;;;;;;1023123;29;20679;-79
2023/01/05 02:04:40;;;;;;;;;;;;;;;;;;1023164;28;20033;-78
2023/01/05 02:05:10;;;;;;;;;;;;;;;;;;1022929;29;19922;-79
2023/01/05 02:05:41;;;;;;;;;;;;;;;;;;1023524;28;19915;-78
2023/01/05 02:06:12;;;;;;;;;;;;;;;;;;1027077;28;19938;-78
2023/01/05 02:06:44;;;;;;;;;;;;;;;;;;1026930;28;19945;-79
2023/01/05 02:07:15;;;;;;;;;;;;;;;;;;1023534;28;20009;-77
2023/01/05 02:07:46;;;;;;;;;;;;;;;;;;1023266;29;19937;-79
2023/01/05 02:08:24;;;;;;;;;;;;;;;;;;1023033;28;20352;-79
2023/01/05 02:08:55;;;;;;;;;;;;;;;;;;1023222;29;20001;-80
2023/01/05 02:09:25;;;;;;;;;;;;;;;;;;1023042;29;20018;-78
2023/01/05 02:09:56;;;;;;;;;;;;;;;;;;1024289;28;20129;-78
2023/01/05 02:10:27;;;;;;;;;;;;;;;;;;1027201;28;19957;-78
2023/01/05 02:10:58;;;;;;;;;;;;;;;;;;1026846;28;20392;-79
2023/01/05 02:11:29;;;;;;;;;;;;;;;;;;1024422;28;19965;-78
2023/01/05 02:12:00;;;;;;;;;;;;;;;;;;1031208;28;20377;-79
2023/01/05 02:12:31;;;;;;;;;;;;;;;;;;1027073;28;20005;-79
2023/01/05 02:13:02;;;;;;;;;;;;;;;;;;1027095;28;19914;-78
2023/01/05 02:13:32;;;;;;;;;;;;;;;;;;1023037;29;19921;-77
2023/01/05 02:14:03;;;;;;;;;;;;;;;;;;1019294;29;19917;-79
2023/01/05 02:14:34;;;;;;;;;;;;;;;;;;1019135;29;19915;-78
2023/01/05 02:15:05;;;;;;;;;;;;;;;;;;1019455;29;19911;-78
2023/01/05 02:15:36;;;;;;;;;;;;;;;;;;1023188;29;19914;-78
2023/01/05 02:16:07;;;;;;;;;;;;;;;;;;1023244;28;19914;-79
2023/01/05 02:16:38;;;;;;;;;;;;;;;;;;1027313;28;19918;-79
2023/01/05 02:17:09;;;;;;;;;;;;;;;;;;1027268;28;20305;-78
2023/01/05 02:17:39;;;;;;;;;;;;;;;;;;1023125;29;19919;-79
2023/01/05 02:18:10;;;;;;;;;;;;;;;;;;1023269;29;19915;-79
2023/01/05 02:18:41;;;;;;;;;;;;;;;;;;1023335;29;19915;-79
2023/01/05 02:19:12;;;;;;;;;;;;;;;;;;1023334;28;19921;-79
2023/01/05 02:19:43;;;;;;;;;;;;;;;;;;1027518;28;19981;-79
2023/01/05 02:20:14;;;;;;;;;;;;;;;;;;1026998;28;19997;-79
2023/01/05 02:20:45;;;;;;;;;;;;;;;;;;1027289;28;19921;-78
2023/01/05 02:21:15;;;;;;;;;;;;;;;;;;1027141;28;19914;-78
2023/01/05 02:21:46;;;;;;;;;;;;;;;;;;1026911;28;19914;-79
2023/01/05 02:22:17;;;;;;;;;;;;;;;;;;1026809;28;19911;-77
2023/01/05 02:22:48;;;;;;;;;;;;;;;;;;1023513;29;19990;-78
2023/01/05 02:23:19;;;;;;;;;;;;;;;;;;1023016;28;19911;-78
2023/01/05 02:23:50;;;;;;;;;;;;;;;;;;1027316;28;19922;-79
2023/01/05 02:24:21;;;;;;;;;;;;;;;;;;1027111;28;19910;-79
2023/01/05 02:24:51;;;;;;;;;;;;;;;;;;1027355;28;19922;-78
2023/01/05 02:25:22;;;;;;;;;;;;;;;;;;1027297;28;19918;-78
2023/01/05 02:25:53;;;;;;;;;;;;;;;;;;1027197;28;19960;-78
2023/01/05 02:26:24;;;;;;;;;;;;;;;;;;1023244;29;19910;-79
2023/01/05 02:26:55;;;;;;;;;;;;;;;;;;1023074;29;20369;-78
2023/01/05 02:27:26;;;;;;;;;;;;;;;;;;1023116;29;19966;-77
2023/01/05 02:27:57;;;;;;;;;;;;;;;;;;1023102;29;20498;-77
2023/01/05 02:28:28;;;;;;;;;;;;;;;;;;1020018;28;20398;-78
2023/01/05 02:28:58;;;;;;;;;;;;;;;;;;1022869;28;19915;-78
2023/01/05 02:29:29;;;;;;;;;;;;;;;;;;1023186;29;19949;-77
2023/01/05 02:30:00;;;;;;;;;;;;;;;;;;1023229;28;19977;-78
2023/01/05 02:30:32;;;;;;;;;;;;;;;;;;1019808;29;19966;-77
2023/01/05 02:31:03;;;;;;;;;;;;;;;;;;1023058;29;19922;-78
2023/01/05 02:31:34;;;;;;;;;;;;;;;;;;1023272;29;19953;-77
2023/01/05 02:32:04;;;;;;;;;;;;;;;;;;1022551;29;19914;-78
2023/01/05 02:32:35;;;;;;;;;;;;;;;;;;1020214;29;19922;-78
2023/01/05 02:33:06;;;;;;;;;;;;;;;;;;1019216;29;19915;-77
2023/01/05 02:33:37;;;;;;;;;;;;;;;;;;1020350;28;19911;-77
2023/01/05 02:34:08;;;;;;;;;;;;;;;;;;1027072;28;19937;-77
2023/01/05 02:34:39;;;;;;;;;;;;;;;;;;1027589;28;19914;-77
2023/01/05 02:35:10;;;;;;;;;;;;;;;;;;1031318;28;19973;-77
2023/01/05 02:35:41;;;;;;;;;;;;;;;;;;1024515;28;19911;-77
2023/01/05 02:36:11;;;;;;;;;;;;;;;;;;1023582;29;20029;-77
2023/01/05 02:36:42;;;;;;;;;;;;;;;;;;1023959;29;20484;-77
2023/01/05 02:37:13;;;;;;;;;;;;;;;;;;1023763;29;20041;-78
2023/01/05 02:37:44;;;;;;;;;;;;;;;;;;1024019;28;19910;-77
2023/01/05 02:38:15;;;;;;;;;;;;;;;;;;1028209;28;19914;-79
2023/01/05 02:38:46;;;;;;;;;;;;;;;;;;1028396;28;19910;-77
2023/01/05 02:39:17;;;;;;;;;;;;;;;;;;1028003;28;19914;-78
2023/01/05 02:39:47;;;;;;;;;;;;;;;;;;1023744;29;19959;-77
2023/01/05 02:40:19;;;;;;;;;;;;;;;;;;1023876;29;19921;-78
2023/01/05 02:40:50;;;;;;;;;;;;;;;;;;1020649;28;20401;-77
2023/01/05 02:41:21;;;;;;;;;;;;;;;;;;1024244;28;20770;-77
2023/01/05 02:41:52;;;;;;;;;;;;;;;;;;1027892;28;19914;-78
2023/01/05 02:42:23;;;;;;;;;;;;;;;;;;1027929;28;19966;-77
2023/01/05 02:42:54;;;;;;;;;;;;;;;;;;1027592;28;19915;-78
2023/01/05 02:43:25;;;;;;;;;;;;;;;;;;1027890;28;19937;-78
2023/01/05 02:43:56;;;;;;;;;;;;;;;;;;1022583;29;20943;-78
2023/01/05 02:44:27;;;;;;;;;;;;;;;;;;1021783;29;20598;-77
2023/01/05 02:44:58;;;;;;;;;;;;;;;;;;1019684;29;19914;-78
2023/01/05 02:45:29;;;;;;;;;;;;;;;;;;1020009;29;20354;-77
2023/01/05 02:46:00;;;;;;;;;;;;;;;;;;1019830;29;19945;-80
2023/01/05 02:46:31;;;;;;;;;;;;;;;;;;1019927;29;20341;-78
2023/01/05 02:47:01;;;;;;;;;;;;;;;;;;1024060;28;19914;-78
2023/01/05 02:47:32;;;;;;;;;;;;;;;;;;1028122;28;19961;-77
2023/01/05 02:48:04;;;;;;;;;;;;;;;;;;1024002;29;19911;-78
2023/01/05 02:48:34;;;;;;;;;;;;;;;;;;1023910;28;19961;-78
2023/01/05 02:49:05;;;;;;;;;;;;;;;;;;1020066;29;19914;-77
2023/01/05 02:49:36;;;;;;;;;;;;;;;;;;1020332;29;20295;-78
2023/01/05 02:50:07;;;;;;;;;;;;;;;;;;1023966;29;19919;-77
2023/01/05 02:50:38;;;;;;;;;;;;;;;;;;1024033;29;19914;-78
2023/01/05 02:51:09;;;;;;;;;;;;;;;;;;1020001;29;19966;-78
2023/01/05 02:51:40;;;;;;;;;;;;;;;;;;1019774;29;20543;-78
2023/01/05 02:52:10;;;;;;;;;;;;;;;;;;1019907;29;19942;-79
2023/01/05 02:52:41;;;;;;;;;;;;;;;;;;1020206;29;20487;-79
2023/01/05 02:53:12;;;;;;;;;;;;;;;;;;1024040;28;19910;-78
2023/01/05 02:53:43;;;;;;;;;;;;;;;;;;1028056;28;20516;-78
2023/01/05 02:54:14;;;;;;;;;;;;;;;;;;1027853;28;19914;-78
2023/01/05 02:54:45;;;;;;;;;;;;;;;;;;1027807;28;19913;-77
2023/01/05 02:55:16;;;;;;;;;;;;;;;;;;1027837;28;19918;-77
2023/01/05 02:55:47;;;;;;;;;;;;;;;;;;1027799;28;19910;-78
2023/01/05 02:56:17;;;;;;;;;;;;;;;;;;1029542;28;19933;-78
2023/01/05 02:56:48;;;;;;;;;;;;;;;;;;1031861;28;19910;-77
2023/01/05 02:57:19;;;;;;;;;;;;;;;;;;1027876;28;19962;-77
2023/01/05 02:57:50;;;;;;;;;;;;;;;;;;1028013;28;19914;-77
2023/01/05 02:58:21;;;;;;;;;;;;;;;;;;1028283;28;19910;-77
2023/01/05 02:58:52;;;;;;;;;;;;;;;;;;1027960;28;19997;-77
2023/01/05 02:59:23;;;;;;;;;;;;;;;;;;1028110;28;19941;-77
2023/01/05 02:59:54;;;;;;;;;;;;;;;;;;1023634;29;19969;-79
2023/01/05 03:00:24;;;;;;;;;;;;;;;;;;1023902;29;20644;-77
2023/01/05 03:00:55;;;;;;;;;;;;;;;;;;1023785;29;19907;-77
2023/01/05 03:01:26;;;;;;;;;;;;;;;;;;1023824;29;19907;-78
2023/01/05 03:01:57;;;;;;;;;;;;;;;;;;1022295;29;19914;-77
2023/01/05 03:02:28;;;;;;;;;;;;;;;;;;1023943;29;19911;-77
2023/01/05 03:02:59;;;;;;;;;;;;;;;;;;1023478;29;19907;-79
2023/01/05 03:03:30;;;;;;;;;;;;;;;;;;1023832;29;20258;-79
2023/01/05 03:04:00;;;;;;;;;;;;;;;;;;1024248;28;20045;-79
2023/01/05 03:04:31;;;;;;;;;;;;;;;;;;1027979;28;20409;-78
2023/01/05 03:05:03;;;;;;;;;;;;;;;;;;1023796;29;19910;-79
2023/01/05 03:05:34;;;;;;;;;;;;;;;;;;1023803;29;19923;-78
2023/01/05 03:06:04;;;;;;;;;;;;;;;;;;1023962;29;19962;-79
2023/01/05 03:06:37;;;;;;;;;;;;;;;;;;1023943;29;19919;-79
2023/01/05 03:07:08;;;;;;;;;;;;;;;;;;1019943;29;19976;-77
2023/01/05 03:07:39;;;;;;;;;;;;;;;;;;1020059;29;20368;-78
2023/01/05 03:08:20;;;;;;;;;;;;;;;;;;1022973;28;19993;-78
2023/01/05 03:08:51;;;;;;;;;;;;;;;;;;1027881;28;19924;-78
2023/01/05 03:09:24;;;;;;;;;;;;;;;;;;1025459;28;19921;-78
2023/01/05 03:09:55;;;;;;;;;;;;;;;;;;1025765;28;19920;-78
2023/01/05 03:13:45;;;;;;;;;;;;;;;;;;1024381;29;20036;-78
2023/01/05 03:14:16;;;;;;;;;;;;;;;;;;1024133;29;20512;-78
2023/01/05 03:14:47;;;;;;;;;;;;;;;;;;1023966;28;20001;-79
2023/01/05 03:15:18;;;;;;;;;;;;;;;;;;1027662;28;19910;-79
2023/01/05 03:15:49;;;;;;;;;;;;;;;;;;1027900;28;20357;-79
2023/01/05 03:16:20;;;;;;;;;;;;;;;;;;1027753;28;20456;-79
2023/01/05 03:16:51;;;;;;;;;;;;;;;;;;1027715;28;19918;-79
2023/01/05 03:17:22;;;;;;;;;;;;;;;;;;1027604;28;19914;-79
2023/01/05 03:17:52;;;;;;;;;;;;;;;;;;1020111;29;20580;-78
2023/01/05 03:18:24;;;;;;;;;;;;;;;;;;1019104;29;22333;-79
2023/01/05 03:19:44;;;;;;;;;;;;;;;;;;1022404;29;19914;-79
2023/01/05 03:20:15;;;;;;;;;;;;;;;;;;1026396;28;19914;-78
2023/01/05 03:20:46;;;;;;;;;;;;;;;;;;1028117;28;19953;-79
2023/01/05 03:21:17;;;;;;;;;;;;;;;;;;1028049;28;19910;-79
2023/01/05 03:35:52;;;;;;;;;;;;;;;;;;1028188;28;19969;-79
2023/01/05 03:36:23;;;;;;;;;;;;;;;;;;1023708;29;19911;-78
2023/01/05 03:36:54;;;;;;;;;;;;;;;;;;1022315;29;20374;-80
2023/01/05 03:37:25;;;;;;;;;;;;;;;;;;1020067;29;19914;-78
2023/01/05 03:37:56;;;;;;;;;;;;;;;;;;1020022;29;19917;-80
2023/01/05 03:38:27;;;;;;;;;;;;;;;;;;1023987;28;19911;-80
2023/01/05 03:38:57;;;;;;;;;;;;;;;;;;1023792;29;19911;-79
2023/01/05 03:39:28;;;;;;;;;;;;;;;;;;1023569;29;19911;-78
2023/01/05 03:39:59;;;;;;;;;;;;;;;;;;1023704;29;19918;-79
2023/01/05 03:40:30;;;;;;;;;;;;;;;;;;1026618;28;20048;-79
2023/01/05 03:41:01;;;;;;;;;;;;;;;;;;1027396;28;20401;-79
2023/01/05 03:41:32;;;;;;;;;;;;;;;;;;1023748;29;20032;-79
2023/01/05 03:42:03;;;;;;;;;;;;;;;;;;1020088;29;19918;-79
2023/01/05 03:42:34;;;;;;;;;;;;;;;;;;1024048;28;19911;-78
2023/01/05 03:43:05;;;;;;;;;;;;;;;;;;1023974;29;20547;-79
2023/01/05 03:43:36;;;;;;;;;;;;;;;;;;1023895;28;19946;-79
2023/01/05 03:44:06;;;;;;;;;;;;;;;;;;1027631;28;20453;-79
2023/01/05 03:44:37;;;;;;;;;;;;;;;;;;1027745;28;19921;-79
2023/01/05 03:45:08;;;;;;;;;;;;;;;;;;1027673;28;20599;-79
2023/01/05 03:45:39;;;;;;;;;;;;;;;;;;1027659;28;19914;-78
2023/01/05 03:46:10;;;;;;;;;;;;;;;;;;1022868;28;20551;-78
2023/01/05 03:46:41;;;;;;;;;;;;;;;;;;1019680;29;20456;-78
2023/01/05 03:47:12;;;;;;;;;;;;;;;;;;1023537;29;20408;-80
2023/01/05 03:47:43;;;;;;;;;;;;;;;;;;1021020;29;19918;-79
2023/01/05 03:48:14;;;;;;;;;;;;;;;;;;1015807;29;19919;-79
2023/01/05 03:48:44;;;;;;;;;;;;;;;;;;1020542;29;19966;-79
2023/01/05 03:49:16;;;;;;;;;;;;;;;;;;1023460;29;19937;-80
2023/01/05 03:49:47;;;;;;;;;;;;;;;;;;1024205;28;20009;-78
2023/01/05 03:50:18;;;;;;;;;;;;;;;;;;1023587;29;19910;-79
2023/01/05 03:50:49;;;;;;;;;;;;;;;;;;1023724;29;19993;-79
2023/01/05 03:51:20;;;;;;;;;;;;;;;;;;1023625;29;19910;-80
2023/01/05 03:51:50;;;;;;;;;;;;;;;;;;1024015;28;19921;-80
2023/01/05 03:52:21;;;;;;;;;;;;;;;;;;1024096;28;20298;-79
2023/01/05 03:52:52;;;;;;;;;;;;;;;;;;1023679;29;20025;-79
2023/01/05 03:53:23;;;;;;;;;;;;;;;;;;1023886;29;20329;-80
2023/01/05 03:53:54;;;;;;;;;;;;;;;;;;1019657;29;19911;-77
2023/01/05 03:54:25;;;;;;;;;;;;;;;;;;1019781;29;20019;-79
2023/01/05 03:54:56;;;;;;;;;;;;;;;;;;1015870;29;19912;-77
2023/01/05 03:55:26;;;;;;;;;;;;;;;;;;1019905;29;19915;-77
2023/01/05 03:55:57;;;;;;;;;;;;;;;;;;1023458;29;20005;-78
2023/01/05 03:56:28;;;;;;;;;;;;;;;;;;1024101;28;19918;-78
2023/01/05 03:56:59;;;;;;;;;;;;;;;;;;1028100;28;19971;-77
2023/01/05 03:57:30;;;;;;;;;;;;;;;;;;1023590;29;19906;-77
2023/01/05 03:58:01;;;;;;;;;;;;;;;;;;1019781;29;19910;-77
2023/01/05 03:58:32;;;;;;;;;;;;;;;;;;1019743;29;20392;-77
2023/01/05 03:59:02;;;;;;;;;;;;;;;;;;1019882;29;19914;-78
2023/01/05 03:59:33;;;;;;;;;;;;;;;;;;1020048;29;20011;-78
2023/01/05 04:00:04;;;;;;;;;;;;;;;;;;1016762;29;19958;-78
2023/01/05 04:00:35;;;;;;;;;;;;;;;;;;1011828;29;19912;-78
2023/01/05 04:01:07;;;;;;;;;;;;;;;;;;1012226;29;19930;-78
2023/01/05 04:01:38;;;;;;;;;;;;;;;;;;1016261;29;19959;-79